Time;durP1;ratioP1;P1;durP2;ratioP2;P2;SDS_P1;SDS_P2;PMS_P1;PMS_P2;Temp;Humidity;BMP_temperature;BMP_pressure;BME280_temperature;BME280_humidity;BME280_pressure;Samples;Min_cycle;Max_cycle;Signal;HPM_P1;HPM_P2
2022/07/03 00:00:56;;;;;;;0.10;0.10;;;17.70;99.90;;;;;;5030944;28;20030;-93
2022/07/03 00:03:25;;;;;;;0.10;0.10;;;17.80;99.90;;;;;;5031661;28;20070;-92
2022/07/03 00:05:51;;;;;;;0.00;0.00;;;17.90;99.90;;;;;;5016637;28;20037;-92
2022/07/03 00:08:22;;;;;;;0.00;0.00;;;18.00;99.90;;;;;;5030823;28;20506;-92
2022/07/03 00:10:50;;;;;;;0.10;0.10;;;18.20;99.90;;;;;;5032559;28;20029;-92
2022/07/03 00:13:16;;;;;;;0.10;0.10;;;18.20;99.90;;;;;;5015857;28;20018;-91
2022/07/03 00:15:48;;;;;;;0.00;0.00;;;18.20;99.90;;;;;;5035582;28;20026;-91
2022/07/03 00:18:17;;;;;;;0.10;0.10;;;18.20;99.90;;;;;;5018080;28;20030;-92
2022/07/03 00:20:49;;;;;;;0.10;0.10;;;18.10;99.90;;;;;;5017961;28;20038;-92
2022/07/03 00:23:21;;;;;;;0.00;0.00;;;18.30;99.90;;;;;;5019749;28;20052;-92
2022/07/03 00:25:52;;;;;;;;;;;18.30;99.90;;;;;;5034285;28;20018;-92
2022/07/03 00:28:21;;;;;;;0.10;0.10;;;18.30;99.90;;;;;;5018404;28;19905;-91
2022/07/03 00:30:50;;;;;;;0.10;0.10;;;18.30;99.90;;;;;;5018537;28;20010;-91
2022/07/03 00:33:23;;;;;;;0.10;0.10;;;18.20;99.90;;;;;;5035757;28;20026;-92
2022/07/03 00:35:51;;;;;;;0.10;0.10;;;18.10;99.90;;;;;;5035082;28;20089;-92
2022/07/03 00:38:20;;;;;;;0.10;0.10;;;18.10;99.90;;;;;;5036948;28;20068;-90
2022/07/03 00:40:46;;;;;;;0.10;0.10;;;18.10;99.90;;;;;;5035446;28;20022;-93
2022/07/03 00:43:17;;;;;;;0.10;0.10;;;18.20;99.90;;;;;;5036052;28;20014;-91
2022/07/03 00:45:53;;;;;;;0.10;0.10;;;18.30;99.90;;;;;;5034535;28;20044;-90
2022/07/03 00:48:20;;;;;;;0.00;0.00;;;18.10;99.90;;;;;;5035607;28;20042;-92
2022/07/03 00:50:52;;;;;;;0.10;0.10;;;18.10;99.90;;;;;;5018283;28;20026;-91
2022/07/03 00:53:38;;;;;;;0.10;0.10;;;18.00;99.90;;;;;;5029427;28;20026;-92
2022/07/03 00:56:04;;;;;;;0.10;0.10;;;18.00;99.90;;;;;;5033845;28;20025;-92
2022/07/03 00:58:35;;;;;;;0.25;0.25;;;17.90;99.90;;;;;;5033482;28;20026;-91
2022/07/03 01:01:07;;;;;;;0.00;0.00;;;17.90;99.90;;;;;;5032984;28;20038;-91
2022/07/03 01:03:41;;;;;;;0.03;0.03;;;18.00;99.90;;;;;;5017954;28;20037;-91
2022/07/03 01:06:13;;;;;;;0.00;0.00;;;18.10;99.90;;;;;;5033197;28;20049;-92
2022/07/03 01:08:45;;;;;;;;;;;18.20;99.90;;;;;;5016770;28;20101;-93
2022/07/03 01:12:04;;;;;;;;;;;;;;;;;;;;;
2022/07/03 01:14:47;;;;;;;0.00;0.00;;;18.40;99.90;;;;;;5039713;28;20090;-91
2022/07/03 01:17:32;;;;;;;0.00;0.00;;;18.30;99.90;;;;;;5035783;28;20010;-90
2022/07/03 01:20:02;;;;;;;0.08;0.08;;;18.40;99.90;;;;;;5021794;28;20034;-92
2022/07/03 01:22:43;;;;;;;0.00;0.00;;;18.50;99.90;;;;;;5033204;28;20022;-91
2022/07/03 01:25:15;;;;;;;0.30;0.30;;;18.40;99.90;;;;;;5034347;28;20086;-92
2022/07/03 01:28:07;;;;;;;0.00;0.00;;;18.40;99.90;;;;;;5018267;28;20010;-93
2022/07/03 01:30:39;;;;;;;0.00;0.00;;;18.40;99.90;;;;;;5015144;28;20128;-92
2022/07/03 01:33:09;;;;;;;0.10;0.10;;;18.50;99.90;;;;;;5032930;28;20057;-91
2022/07/03 01:35:38;;;;;;;0.00;0.00;;;18.40;99.90;;;;;;5036010;28;20018;-91
2022/07/03 01:38:07;;;;;;;0.00;0.00;;;18.40;99.90;;;;;;5036285;28;20058;-92
2022/07/03 01:40:35;;;;;;;0.05;0.05;;;18.50;99.90;;;;;;5035708;28;20026;-92
2022/07/03 01:43:03;;;;;;;0.10;0.10;;;18.40;99.90;;;;;;5017176;28;20101;-91
2022/07/03 01:45:32;;;;;;;0.20;0.20;;;18.40;99.90;;;;;;5032699;28;20597;-91
2022/07/03 01:48:00;;;;;;;0.05;0.05;;;18.40;99.90;;;;;;5034102;28;20018;-92
2022/07/03 01:50:28;;;;;;;0.10;0.10;;;18.30;99.90;;;;;;5033301;28;20061;-91
2022/07/03 01:52:56;;;;;;;0.00;0.00;;;18.40;99.90;;;;;;5033335;28;20018;-93
2022/07/03 01:55:25;;;;;;;0.10;0.10;;;18.50;99.90;;;;;;5017202;28;20022;-92
2022/07/03 01:57:51;;;;;;;0.40;0.38;;;18.50;99.90;;;;;;5032828;28;20040;-91
2022/07/03 02:00:21;;;;;;;0.08;0.08;;;18.40;99.90;;;;;;5017142;28;20124;-92
2022/07/03 02:02:58;;;;;;;0.10;0.10;;;18.30;99.90;;;;;;5033007;28;20049;-91
2022/07/03 02:05:34;;;;;;;0.00;0.00;;;18.20;99.90;;;;;;5018684;28;20474;-91
2022/07/03 02:08:08;;;;;;;0.08;0.08;;;18.40;99.90;;;;;;5033460;28;20095;-92
2022/07/03 02:10:46;;;;;;;0.00;0.00;;;18.50;99.90;;;;;;5016462;28;20034;-91
2022/07/03 02:13:37;;;;;;;0.10;0.10;;;18.50;99.90;;;;;;5035155;28;20081;-91
2022/07/03 02:16:03;;;;;;;0.10;0.10;;;18.50;99.90;;;;;;5033911;28;20029;-91
2022/07/03 02:18:33;;;;;;;0.10;0.10;;;18.50;99.90;;;;;;5017098;28;20091;-92
2022/07/03 02:21:17;;;;;;;0.10;0.10;;;18.50;99.90;;;;;;5034564;28;20097;-91
2022/07/03 02:24:02;;;;;;;0.00;0.00;;;18.40;99.90;;;;;;5034336;28;20069;-92
2022/07/03 02:26:33;;;;;;;0.10;0.10;;;18.40;99.90;;;;;;5033314;28;20022;-92
2022/07/03 02:29:04;;;;;;;0.00;0.00;;;18.30;99.90;;;;;;5016588;28;20133;-91
2022/07/03 02:31:39;;;;;;;0.00;0.00;;;18.30;99.90;;;;;;5034037;28;20018;-91
2022/07/03 02:34:06;;;;;;;0.03;0.03;;;18.30;99.90;;;;;;5016800;28;20070;-92
2022/07/03 02:36:34;;;;;;;0.10;0.10;;;18.40;99.90;;;;;;5032243;28;20024;-92
2022/07/03 02:39:08;;;;;;;0.10;0.10;;;18.30;99.90;;;;;;5016345;28;20025;-91
2022/07/03 02:41:47;;;;;;;0.10;0.10;;;18.20;99.90;;;;;;5017282;28;20037;-91
2022/07/03 02:44:25;;;;;;;0.05;0.05;;;18.20;99.90;;;;;;5032091;28;20053;-92
2022/07/03 02:47:14;;;;;;;0.10;0.10;;;18.10;99.90;;;;;;5032158;28;20040;-90
2022/07/03 02:50:03;;;;;;;0.10;0.10;;;18.10;99.90;;;;;;5032773;28;20033;-91
2022/07/03 02:52:37;;;;;;;0.10;0.10;;;18.00;99.90;;;;;;5015370;28;20279;-91
2022/07/03 02:55:44;;;;;;;0.10;0.10;;;18.00;99.90;;;;;;5016001;28;20033;-92
2022/07/03 02:58:21;;;;;;;0.03;0.03;;;18.00;99.90;;;;;;5015258;28;20022;-92
2022/07/03 03:01:02;;;;;;;0.00;0.00;;;18.20;99.90;;;;;;5016736;28;20046;-91
2022/07/03 03:03:30;;;;;;;0.00;0.00;;;18.30;99.90;;;;;;5016416;28;20022;-91
2022/07/03 03:06:02;;;;;;;0.10;0.10;;;18.50;99.90;;;;;;5033002;28;20021;-92
2022/07/03 03:08:48;;;;;;;0.00;0.00;;;18.50;99.90;;;;;;5033553;28;20080;-91
2022/07/03 03:11:39;;;;;;;0.00;0.00;;;18.40;99.90;;;;;;5017058;28;20029;-91
2022/07/03 03:14:09;;;;;;;0.03;0.03;;;18.30;99.90;;;;;;5015964;28;20030;-91
2022/07/03 03:16:41;;;;;;;0.10;0.10;;;18.20;99.90;;;;;;5033241;28;20018;-92
2022/07/03 03:19:07;;;;;;;0.05;0.05;;;18.20;99.90;;;;;;5016879;28;20033;-91
2022/07/03 03:21:42;;;;;;;0.10;0.10;;;18.20;99.90;;;;;;5017200;28;20021;-90
2022/07/03 03:24:12;;;;;;;0.00;0.00;;;18.10;99.90;;;;;;5016330;28;20089;-91
2022/07/03 03:26:38;;;;;;;0.20;0.20;;;18.00;99.90;;;;;;5017498;28;20029;-90
2022/07/03 03:29:04;;;;;;;1.15;0.80;;;17.90;99.90;;;;;;5031802;28;20034;-91
2022/07/03 03:31:31;;;;;;;0.00;0.00;;;17.60;99.90;;;;;;5032890;28;20102;-92
2022/07/03 03:33:59;;;;;;;0.10;0.10;;;17.60;99.90;;;;;;5017325;28;20093;-92
2022/07/03 03:36:25;;;;;;;0.00;0.00;;;17.60;99.90;;;;;;5034308;28;20038;-92
2022/07/03 03:38:51;;;;;;;0.00;0.00;;;17.80;99.90;;;;;;5033997;28;20026;-91
2022/07/03 03:41:17;;;;;;;0.10;0.10;;;17.80;99.90;;;;;;5017282;28;20029;-90
2022/07/03 03:43:43;;;;;;;0.10;0.10;;;18.00;99.90;;;;;;5030650;23;20078;-73
2022/07/03 03:46:09;;;;;;;0.00;0.00;;;17.90;99.90;;;;;;4989739;28;20089;-76
2022/07/03 03:48:35;;;;;;;0.00;0.00;;;17.90;99.90;;;;;;4991709;28;20473;-75
2022/07/03 03:51:02;;;;;;;0.00;0.00;;;17.90;99.90;;;;;;4992268;28;20018;-75
2022/07/03 03:53:29;;;;;;;0.10;0.10;;;17.80;99.90;;;;;;4991351;28;20023;-75
2022/07/03 03:56:04;;;;;;;0.10;0.10;;;17.70;99.90;;;;;;4992664;28;20409;-75
2022/07/03 03:58:31;;;;;;;0.00;0.00;;;17.60;99.90;;;;;;4992399;28;20094;-75
2022/07/03 04:01:01;;;;;;;0.50;0.50;;;17.40;99.90;;;;;;4990950;28;20018;-75
2022/07/03 04:03:28;;;;;;;0.10;0.10;;;17.40;99.90;;;;;;4992565;28;20073;-75
2022/07/03 04:05:55;;;;;;;0.00;0.00;;;17.30;99.90;;;;;;4992450;28;20014;-75
2022/07/03 04:08:21;;;;;;;0.00;0.00;;;17.30;99.90;;;;;;4992475;28;20030;-75
2022/07/03 04:10:48;;;;;;;0.10;0.10;;;17.40;99.90;;;;;;4990778;28;20037;-75
2022/07/03 04:13:15;;;;;;;0.10;0.10;;;17.40;99.90;;;;;;4992368;28;20497;-76
2022/07/03 04:15:40;;;;;;;0.25;0.25;;;17.50;99.90;;;;;;4992460;28;20023;-75
2022/07/03 04:18:06;;;;;;;0.10;0.10;;;17.50;99.90;;;;;;4992414;28;20428;-75
2022/07/03 04:20:32;;;;;;;0.00;0.00;;;17.50;99.90;;;;;;4992214;28;20031;-75
2022/07/03 04:22:58;;;;;;;0.10;0.10;;;17.50;99.90;;;;;;4992407;28;20018;-75
2022/07/03 04:25:25;;;;;;;0.10;0.10;;;17.60;99.90;;;;;;4990896;28;20031;-76
2022/07/03 04:27:51;;;;;;;0.10;0.10;;;17.70;99.90;;;;;;4992303;28;20026;-76
2022/07/03 04:30:17;;;;;;;0.10;0.10;;;17.80;99.90;;;;;;4991954;28;20038;-75
2022/07/03 04:32:43;;;;;;;0.10;0.10;;;17.70;99.90;;;;;;4991144;28;20034;-75
2022/07/03 04:35:09;;;;;;;0.10;0.10;;;17.70;99.90;;;;;;4992227;28;20433;-76
2022/07/03 04:37:35;;;;;;;0.10;0.10;;;17.90;99.90;;;;;;4992233;28;20101;-75
2022/07/03 04:40:00;;;;;;;0.10;0.10;;;18.00;99.90;;;;;;4991926;28;20065;-75
2022/07/03 04:42:26;;;;;;;0.10;0.10;;;18.10;99.90;;;;;;4992140;28;20026;-75
2022/07/03 04:44:52;;;;;;;0.00;0.00;;;18.10;99.90;;;;;;4990990;28;20490;-75
2022/07/03 04:47:18;;;;;;;0.00;0.00;;;18.20;99.90;;;;;;4992182;28;20026;-75
2022/07/03 04:49:44;;;;;;;0.10;0.10;;;18.30;99.90;;;;;;4991802;28;20034;-77
2022/07/03 04:52:10;;;;;;;0.10;0.10;;;18.20;99.90;;;;;;4990787;28;20026;-75
2022/07/03 04:54:36;;;;;;;0.10;0.10;;;18.20;99.90;;;;;;4991975;28;20497;-75
2022/07/03 04:57:03;;;;;;;0.00;0.00;;;18.20;99.90;;;;;;4992064;28;20030;-75
2022/07/03 04:59:29;;;;;;;0.10;0.10;;;18.10;99.90;;;;;;4992449;28;20034;-76
2022/07/03 05:01:54;;;;;;;0.10;0.10;;;18.00;99.90;;;;;;4995427;28;20026;-77
2022/07/03 05:04:20;;;;;;;0.15;0.15;;;18.00;99.90;;;;;;4995406;28;20026;-75
2022/07/03 05:06:46;;;;;;;0.00;0.00;;;18.10;99.90;;;;;;4995456;28;20029;-75
2022/07/03 05:09:12;;;;;;;0.00;0.00;;;18.20;99.90;;;;;;4994857;28;20368;-75
2022/07/03 05:11:37;;;;;;;2.30;1.38;;;18.30;99.90;;;;;;4995184;28;20022;-75
2022/07/03 05:14:04;;;;;;;0.10;0.10;;;18.30;99.90;;;;;;4995184;28;20546;-75
2022/07/03 05:16:30;;;;;;;0.00;0.00;;;18.40;99.90;;;;;;4995165;28;20438;-75
2022/07/03 05:18:57;;;;;;;0.10;0.10;;;18.50;99.90;;;;;;4994907;28;20026;-75
2022/07/03 05:21:22;;;;;;;0.00;0.00;;;18.60;99.90;;;;;;4994979;28;20058;-75
2022/07/03 05:23:48;;;;;;;0.10;0.10;;;18.70;99.90;;;;;;4993830;28;20046;-76
2022/07/03 05:26:14;;;;;;;0.10;0.10;;;18.80;99.90;;;;;;4993567;28;20034;-75
2022/07/03 05:28:41;;;;;;;0.10;0.10;;;18.90;99.90;;;;;;4994822;28;20026;-75
2022/07/03 05:31:07;;;;;;;0.10;0.10;;;19.00;99.90;;;;;;4993391;28;20029;-77
2022/07/03 05:33:33;;;;;;;0.20;0.20;;;19.00;99.90;;;;;;4994806;28;20030;-75
2022/07/03 05:35:59;;;;;;;0.10;0.10;;;19.20;99.90;;;;;;4994740;28;20030;-77
2022/07/03 05:41:10;;;;;;;0.00;0.00;;;19.30;99.90;;;;;;4994512;28;20105;-75
2022/07/03 05:43:36;;;;;;;0.10;0.10;;;19.50;99.90;;;;;;4994698;28;20026;-75
2022/07/03 05:46:03;;;;;;;0.10;0.10;;;19.60;99.90;;;;;;4994571;28;20035;-75
2022/07/03 05:48:29;;;;;;;0.10;0.10;;;19.60;99.90;;;;;;4994358;28;20053;-75
2022/07/03 05:50:55;;;;;;;0.10;0.10;;;19.70;99.90;;;;;;4994362;28;20022;-75
2022/07/03 05:53:21;;;;;;;0.10;0.10;;;19.70;99.90;;;;;;4994522;28;20038;-75
2022/07/03 05:55:47;;;;;;;0.10;0.10;;;19.80;99.90;;;;;;4994433;28;20022;-76
2022/07/03 05:58:13;;;;;;;0.03;0.03;;;19.90;99.90;;;;;;4994316;28;20037;-76
2022/07/03 06:00:39;;;;;;;0.10;0.10;;;20.00;99.90;;;;;;4994102;28;20029;-75
2022/07/03 06:03:05;;;;;;;0.10;0.10;;;20.10;99.90;;;;;;4993137;28;20529;-75
2022/07/03 06:05:32;;;;;;;0.10;0.10;;;20.30;99.90;;;;;;4993005;28;20030;-75
2022/07/03 06:07:58;;;;;;;0.10;0.10;;;20.30;99.90;;;;;;4994198;28;20635;-75
2022/07/03 06:10:24;;;;;;;0.10;0.10;;;20.50;99.90;;;;;;4993495;28;20037;-75
2022/07/03 06:12:50;;;;;;;0.00;0.00;;;20.60;99.90;;;;;;4993481;28;20364;-76
2022/07/03 06:15:16;;;;;;;0.10;0.10;;;20.70;99.90;;;;;;4993361;28;20084;-75
2022/07/03 06:17:43;;;;;;;0.10;0.10;;;20.80;99.90;;;;;;4982090;28;20203;-75
2022/07/03 06:20:10;;;;;;;0.10;0.10;;;20.80;99.90;;;;;;4977355;28;20019;-75
2022/07/03 06:22:35;;;;;;;0.10;0.10;;;20.90;99.90;;;;;;4973145;28;20041;-75
2022/07/03 06:25:02;;;;;;;0.10;0.10;;;21.00;99.90;;;;;;4982932;28;20482;-76
2022/07/03 06:27:28;;;;;;;0.10;0.10;;;21.10;99.90;;;;;;4993669;28;20038;-75
2022/07/03 06:29:54;;;;;;;0.10;0.10;;;21.20;99.90;;;;;;4992723;28;20042;-75
2022/07/03 06:32:20;;;;;;;0.00;0.00;;;21.40;99.90;;;;;;4985838;28;20128;-76
2022/07/03 06:34:46;;;;;;;0.10;0.10;;;21.60;99.90;;;;;;4992305;28;20031;-76
2022/07/03 06:37:12;;;;;;;0.00;0.00;;;21.70;99.90;;;;;;4993562;28;20029;-75
2022/07/03 06:39:38;;;;;;;0.28;0.17;;;21.90;99.90;;;;;;4979476;28;20118;-75
2022/07/03 06:42:04;;;;;;;0.00;0.00;;;22.10;99.90;;;;;;4989844;28;20564;-76
2022/07/03 06:44:30;;;;;;;0.00;0.00;;;22.20;99.90;;;;;;4972742;28;20129;-75
2022/07/03 06:46:57;;;;;;;0.00;0.00;;;22.20;99.90;;;;;;4976800;28;20045;-76
2022/07/03 06:49:23;;;;;;;0.10;0.10;;;22.40;99.90;;;;;;4991646;28;20595;-75
2022/07/03 06:51:49;;;;;;;0.30;0.30;;;22.70;99.90;;;;;;4987399;28;20138;-77
2022/07/03 06:54:15;;;;;;;0.00;0.00;;;22.80;99.90;;;;;;4988982;28;20109;-77
2022/07/03 06:56:42;;;;;;;0.10;0.10;;;22.90;99.00;;;;;;4984494;28;20405;-76
2022/07/03 06:59:08;;;;;;;0.00;0.00;;;22.90;97.50;;;;;;4980612;28;20031;-76
2022/07/03 07:01:34;;;;;;;0.00;0.00;;;23.00;96.90;;;;;;4972491;28;20478;-76
2022/07/03 07:04:01;;;;;;;0.05;0.05;;;23.00;96.40;;;;;;4988137;28;20494;-75
2022/07/03 07:06:27;;;;;;;0.03;0.03;;;23.20;95.80;;;;;;4972368;28;20035;-75
2022/07/03 07:08:53;;;;;;;0.00;0.00;;;23.30;93.90;;;;;;4973268;28;20045;-76
2022/07/03 07:11:19;;;;;;;0.10;0.10;;;23.40;93.40;;;;;;4980659;28;20470;-76
2022/07/03 07:13:45;;;;;;;0.00;0.00;;;23.50;93.90;;;;;;4992310;28;20026;-76
2022/07/03 07:16:11;;;;;;;0.00;0.00;;;23.70;92.50;;;;;;4992965;28;20027;-76
2022/07/03 07:18:36;;;;;;;0.00;0.00;;;23.90;92.50;;;;;;4992862;28;20434;-76
2022/07/03 07:21:02;;;;;;;0.00;0.00;;;24.00;92.30;;;;;;4992755;28;20018;-76
2022/07/03 07:23:28;;;;;;;0.00;0.00;;;24.10;91.50;;;;;;4992642;28;20089;-77
2022/07/03 07:25:54;;;;;;;0.10;0.10;;;24.10;91.40;;;;;;4986118;28;20077;-78
2022/07/03 07:28:19;;;;;;;0.17;0.17;;;24.20;91.30;;;;;;4991775;28;20085;-76
2022/07/03 07:30:45;;;;;;;0.00;0.00;;;24.30;90.30;;;;;;4980165;28;20018;-76
2022/07/03 07:33:11;;;;;;;0.00;0.00;;;24.40;90.20;;;;;;4973038;28;20390;-76
2022/07/03 07:35:37;;;;;;;0.00;0.00;;;24.30;89.00;;;;;;4971547;28;20034;-76
2022/07/03 07:38:03;;;;;;;0.00;0.00;;;24.40;90.00;;;;;;4972242;28;20034;-76
2022/07/03 07:40:28;;;;;;;0.00;0.00;;;24.50;88.60;;;;;;4972765;28;20166;-76
2022/07/03 07:42:54;;;;;;;0.03;0.03;;;24.70;86.30;;;;;;4971757;28;20109;-77
2022/07/03 07:45:20;;;;;;;0.17;0.17;;;24.70;84.40;;;;;;4973159;28;20483;-76
2022/07/03 07:47:46;;;;;;;0.57;0.57;;;24.70;82.90;;;;;;4973341;28;20049;-76
2022/07/03 07:50:12;;;;;;;0.80;0.73;;;24.60;84.50;;;;;;4976145;28;20029;-77
2022/07/03 07:52:37;;;;;;;0.20;0.20;;;24.80;84.10;;;;;;4981481;28;20073;-77
2022/07/03 07:55:05;;;;;;;0.15;0.15;;;24.90;81.00;;;;;;4984765;28;20426;-77
2022/07/03 07:57:38;;;;;;;0.08;0.08;;;25.00;80.30;;;;;;4992514;28;20389;-77
2022/07/03 08:00:16;;;;;;;0.00;0.00;;;25.10;80.20;;;;;;4973293;28;20018;-77
2022/07/03 08:05:36;;;;;;;0.00;0.00;;;25.30;80.50;;;;;;4971642;28;20034;-79
2022/07/03 08:08:03;;;;;;;0.30;0.30;;;25.40;79.00;;;;;;4986012;28;20065;-77
2022/07/03 08:10:33;;;;;;;0.50;0.32;;;25.60;78.40;;;;;;4991755;28;20556;-76
2022/07/03 08:12:58;;;;;;;0.10;0.10;;;25.90;77.90;;;;;;4992291;28;20022;-76
2022/07/03 08:15:24;;;;;;;0.03;0.03;;;25.90;77.40;;;;;;4992379;28;20049;-77
2022/07/03 08:17:50;;;;;;;0.17;0.00;;;26.00;77.40;;;;;;4992902;28;20085;-76
2022/07/03 08:20:15;;;;;;;0.00;0.00;;;26.20;76.80;;;;;;4990951;28;20422;-77
2022/07/03 08:22:41;;;;;;;0.00;0.00;;;26.30;75.90;;;;;;4992934;28;20027;-80
2022/07/03 08:25:07;;;;;;;0.82;0.55;;;26.20;75.70;;;;;;4996564;28;20027;-80
2022/07/03 08:27:33;;;;;;;0.05;0.05;;;26.10;75.20;;;;;;4995989;28;20033;-77
2022/07/03 08:29:59;;;;;;;0.00;0.00;;;26.30;75.20;;;;;;4993311;28;20037;-79
2022/07/03 08:32:24;;;;;;;0.75;0.75;;;26.60;73.90;;;;;;4995821;28;20023;-76
2022/07/03 08:34:50;;;;;;;0.00;0.00;;;26.80;71.70;;;;;;4993553;28;20034;-77
2022/07/03 08:37:16;;;;;;;0.00;0.00;;;26.90;69.20;;;;;;4995842;28;20482;-77
2022/07/03 08:39:41;;;;;;;0.95;0.80;;;26.90;67.50;;;;;;4995730;28;20038;-77
2022/07/03 08:42:10;;;;;;;0.00;0.00;;;26.90;66.70;;;;;;4995902;28;20026;-76
2022/07/03 08:44:37;;;;;;;0.00;0.00;;;26.80;65.50;;;;;;4995764;28;20037;-74
2022/07/03 08:47:03;;;;;;;0.20;0.20;;;27.10;59.80;;;;;;4996163;28;20077;-73
2022/07/03 08:49:29;;;;;;;0.10;0.10;;;27.10;60.70;;;;;;4995413;28;20417;-74
2022/07/03 08:51:55;;;;;;;0.10;0.10;;;26.90;62.50;;;;;;4995634;28;20019;-74
2022/07/03 08:54:21;;;;;;;0.00;0.00;;;27.10;62.20;;;;;;4995681;28;20033;-74
2022/07/03 08:56:48;;;;;;;0.00;0.00;;;27.50;62.20;;;;;;4995889;28;20018;-74
2022/07/03 08:59:15;;;;;;;0.17;0.17;;;27.80;62.50;;;;;;4995307;28;20045;-74
2022/07/03 09:01:43;;;;;;;0.00;0.00;;;27.90;57.90;;;;;;4995494;28;20026;-73
2022/07/03 09:04:13;;;;;;;0.00;0.00;;;28.00;57.80;;;;;;4995433;28;20457;-74
2022/07/03 09:06:40;;;;;;;0.35;0.10;;;28.30;57.30;;;;;;4995250;28;20084;-74
2022/07/03 09:09:08;;;;;;;0.17;0.17;;;28.20;55.30;;;;;;4995000;28;20022;-74
2022/07/03 09:11:35;;;;;;;3.35;0.68;;;28.30;56.00;;;;;;4995334;28;20029;-74
2022/07/03 09:14:06;;;;;;;0.10;0.10;;;28.60;57.10;;;;;;4994177;28;20483;-74
2022/07/03 09:16:34;;;;;;;0.00;0.00;;;28.70;55.50;;;;;;4995307;28;20054;-76
2022/07/03 09:19:00;;;;;;;0.00;0.00;;;28.60;55.80;;;;;;4994868;28;20049;-77
2022/07/03 09:21:38;;;;;;;0.32;0.32;;;28.60;56.00;;;;;;4995252;28;20108;-74
2022/07/03 09:24:06;;;;;;;0.10;0.10;;;28.90;55.50;;;;;;4994817;28;20026;-76
2022/07/03 09:26:33;;;;;;;0.00;0.00;;;29.00;54.90;;;;;;4995223;28;20022;-75
2022/07/03 09:29:00;;;;;;;0.00;0.00;;;29.10;55.70;;;;;;4994946;28;20129;-74
2022/07/03 09:31:28;;;;;;;0.00;0.00;;;29.20;54.30;;;;;;4995074;28;20037;-74
2022/07/03 09:34:07;;;;;;;0.00;0.00;;;29.40;53.50;;;;;;4994938;28;20110;-76
2022/07/03 09:36:39;;;;;;;0.00;0.00;;;29.70;53.10;;;;;;4994922;28;20030;-74
2022/07/03 09:39:15;;;;;;;0.00;0.00;;;29.40;53.70;;;;;;4994464;28;20081;-74
2022/07/03 09:41:55;;;;;;;0.00;0.00;;;29.80;53.70;;;;;;4995004;28;20026;-75
2022/07/03 09:44:45;;;;;;;0.00;0.00;;;30.10;52.20;;;;;;5009475;23;20402;-73
2022/07/03 09:47:18;;;;;;;0.00;0.00;;;30.10;51.70;;;;;;4993084;28;20129;-74
2022/07/03 09:49:45;;;;;;;0.03;0.03;;;30.60;51.50;;;;;;4986882;28;20027;-74
2022/07/03 09:52:25;;;;;;;0.00;0.00;;;30.60;50.70;;;;;;4975201;28;20154;-74
2022/07/03 09:54:51;;;;;;;0.40;0.25;;;30.90;49.80;;;;;;4973643;28;20019;-75
2022/07/03 09:57:18;;;;;;;0.00;0.00;;;30.70;49.00;;;;;;4973698;28;20027;-74
2022/07/03 09:59:44;;;;;;;0.10;0.10;;;30.70;49.60;;;;;;4973637;28;20110;-74
2022/07/03 10:02:10;;;;;;;0.00;0.00;;;31.00;51.00;;;;;;4973885;28;20559;-74
2022/07/03 10:04:36;;;;;;;0.00;0.00;;;31.10;49.80;;;;;;4975097;28;20106;-74
2022/07/03 10:07:03;;;;;;;0.00;0.00;;;31.30;48.90;;;;;;4973983;28;20031;-74
2022/07/03 10:09:34;;;;;;;0.00;0.00;;;31.20;48.80;;;;;;4974726;28;20031;-74
2022/07/03 10:12:02;;;;;;;0.00;0.00;;;31.10;46.20;;;;;;4973712;28;20057;-76
2022/07/03 10:14:30;;;;;;;0.00;0.00;;;31.40;46.80;;;;;;4974853;28;20030;-75
2022/07/03 10:16:58;;;;;;;0.00;0.00;;;31.10;45.50;;;;;;4974891;28;20026;-75
2022/07/03 10:19:26;;;;;;;0.00;0.00;;;31.30;45.30;;;;;;4957117;28;20089;-75
2022/07/03 10:21:57;;;;;;;0.00;0.00;;;31.50;46.20;;;;;;4973190;28;20517;-74
2022/07/03 10:24:27;;;;;;;0.00;0.00;;;31.80;44.90;;;;;;4965914;28;20027;-74
2022/07/03 10:26:54;;;;;;;0.00;0.00;;;31.60;45.70;;;;;;4973224;28;20118;-74
2022/07/03 10:29:24;;;;;;;0.40;0.10;;;31.90;46.00;;;;;;4973430;28;20034;-74
2022/07/03 10:31:50;;;;;;;0.00;0.00;;;31.80;44.20;;;;;;4965342;28;20027;-74
2022/07/03 10:34:24;;;;;;;0.00;0.00;;;32.00;45.70;;;;;;4960305;28;20044;-74
2022/07/03 10:36:59;;;;;;;0.65;0.30;;;32.20;44.20;;;;;;4967212;28;20106;-74
2022/07/03 10:44:45;;;;;;;0.00;0.00;;;32.40;43.40;;;;;;4953545;28;20028;-74
2022/07/03 10:45:34;;;;;;;0.00;0.00;;;31.60;41.20;;;;;;4954320;28;20038;-74
2022/07/03 10:48:00;;;;;;;0.25;0.25;;;31.90;42.90;;;;;;4957929;28;20505;-75
2022/07/03 10:50:26;;;;;;;0.40;0.20;;;31.80;41.50;;;;;;4973774;28;20052;-74
2022/07/03 10:52:52;;;;;;;0.10;0.10;;;31.60;41.40;;;;;;4974005;28;20069;-74
2022/07/03 10:55:19;;;;;;;0.15;0.10;;;31.50;43.00;;;;;;4973956;28;20023;-74
2022/07/03 10:58:07;;;;;;;0.00;0.00;;;31.80;42.40;;;;;;4972110;28;20033;-74
2022/07/03 11:00:53;;;;;;;0.00;0.00;;;32.00;41.60;;;;;;4972402;28;20545;-74
2022/07/03 11:03:57;;;;;;;0.00;0.00;;;31.80;40.40;;;;;;4973858;28;20335;-74
2022/07/03 11:06:42;;;;;;;0.00;0.00;;;32.40;39.90;;;;;;4972651;28;20406;-74
2022/07/03 11:09:12;;;;;;;0.00;0.00;;;32.90;39.80;;;;;;4973092;28;20038;-74
2022/07/03 11:11:55;;;;;;;0.00;0.00;;;33.00;38.60;;;;;;4973707;28;20027;-74
2022/07/03 11:14:29;;;;;;;0.00;0.00;;;32.90;38.80;;;;;;4972515;28;20034;-74
2022/07/03 11:17:17;;;;;;;0.00;0.00;;;32.70;39.30;;;;;;4973629;28;20049;-74
2022/07/03 11:19:43;;;;;;;0.00;0.00;;;33.10;39.40;;;;;;4973673;28;20019;-74
2022/07/03 11:22:19;;;;;;;0.00;0.00;;;33.10;37.70;;;;;;4972676;28;20034;-74
2022/07/03 11:24:45;;;;;;;0.00;0.00;;;32.70;38.00;;;;;;4956464;28;20122;-74
2022/07/03 11:27:17;;;;;;;0.00;0.00;;;32.70;38.00;;;;;;4972329;28;20549;-77
2022/07/03 11:29:58;;;;;;;0.35;0.35;;;32.70;38.80;;;;;;4973531;28;20030;-73
2022/07/03 11:32:46;;;;;;;0.00;0.00;;;33.10;39.20;;;;;;4972091;28;20113;-74
2022/07/03 11:35:51;;;;;;;0.00;0.00;;;33.20;36.30;;;;;;4971926;28;20391;-74
2022/07/03 11:38:25;;;;;;;0.05;0.05;;;33.20;35.90;;;;;;4972017;28;20023;-74
2022/07/03 11:40:52;;;;;;;0.00;0.00;;;33.10;36.40;;;;;;4971734;28;20026;-74
2022/07/03 11:43:19;;;;;;;0.00;0.00;;;33.20;35.90;;;;;;4972855;28;20044;-74
2022/07/03 11:45:46;;;;;;;0.00;0.00;;;32.90;36.20;;;;;;4972878;28;20042;-74
2022/07/03 11:48:14;;;;;;;0.10;0.10;;;32.70;36.80;;;;;;4973299;28;20031;-74
2022/07/03 11:50:44;;;;;;;0.05;0.05;;;32.30;37.90;;;;;;4972923;28;20030;-74
2022/07/03 11:53:20;;;;;;;0.00;0.00;;;32.40;37.70;;;;;;4973243;28;20023;-74
2022/07/03 11:55:48;;;;;;;0.40;0.40;;;32.50;37.90;;;;;;4973055;28;20034;-74
2022/07/03 11:58:14;;;;;;;2.38;0.40;;;32.70;38.70;;;;;;4973099;28;20027;-74
2022/07/03 12:00:40;;;;;;;0.00;0.00;;;32.80;37.50;;;;;;4971544;28;20039;-74
2022/07/03 12:03:05;;;;;;;0.10;0.10;;;32.70;37.90;;;;;;4971728;28;20027;-74
2022/07/03 12:05:31;;;;;;;0.00;0.00;;;32.00;38.00;;;;;;4971894;28;20045;-74
2022/07/03 12:08:06;;;;;;;0.10;0.10;;;31.90;38.40;;;;;;4973190;28;20055;-74
2022/07/03 12:10:39;;;;;;;0.00;0.00;;;31.90;38.70;;;;;;4975228;28;20407;-74
2022/07/03 12:13:22;;;;;;;0.00;0.00;;;32.00;38.20;;;;;;4959515;28;20023;-73
2022/07/03 12:15:48;;;;;;;0.13;0.13;;;31.80;37.90;;;;;;4976900;28;20022;-74
2022/07/03 12:18:14;;;;;;;0.00;0.00;;;31.90;38.80;;;;;;4976674;28;20390;-74
2022/07/03 12:20:41;;;;;;;0.10;0.10;;;31.90;39.40;;;;;;4975230;28;20058;-74
2022/07/03 12:23:07;;;;;;;0.43;0.40;;;31.90;39.60;;;;;;4976517;28;20387;-74
2022/07/03 12:25:39;;;;;;;0.88;0.82;;;31.90;39.50;;;;;;4976696;28;20023;-74
2022/07/03 12:28:06;;;;;;;0.00;0.00;;;32.00;39.40;;;;;;4975273;28;20394;-74
2022/07/03 12:30:32;;;;;;;12.40;4.65;;;32.20;39.10;;;;;;4976263;28;20022;-74
2022/07/03 12:32:58;;;;;;;0.13;0.13;;;32.20;39.70;;;;;;4976484;28;20030;-74
2022/07/03 12:35:26;;;;;;;0.10;0.10;;;31.80;40.30;;;;;;4976480;28;20043;-74
2022/07/03 12:37:51;;;;;;;0.85;0.15;;;31.90;39.60;;;;;;4959124;28;20022;-74
2022/07/03 12:40:18;;;;;;;0.15;0.15;;;31.90;39.60;;;;;;4976262;28;20463;-74
2022/07/03 12:42:45;;;;;;;0.57;0.20;;;31.80;38.80;;;;;;4975294;28;20041;-74
2022/07/03 12:45:13;;;;;;;0.08;0.08;;;31.80;39.80;;;;;;4975982;28;20118;-74
2022/07/03 12:47:39;;;;;;;3.30;0.65;;;31.90;39.50;;;;;;4976197;28;20029;-74
2022/07/03 12:50:07;;;;;;;0.13;0.13;;;31.90;40.00;;;;;;4974751;28;20034;-74
2022/07/03 12:52:48;;;;;;;0.38;0.38;;;31.70;40.30;;;;;;4976288;28;20427;-74
2022/07/03 12:55:23;;;;;;;0.00;0.00;;;31.30;40.90;;;;;;4976238;28;20023;-74
2022/07/03 13:00:43;;;;;;;0.20;0.20;;;31.40;41.20;;;;;;4974593;28;20232;-74
2022/07/03 13:03:29;;;;;;;0.00;0.00;;;31.70;41.00;;;;;;4976221;28;20058;-74
2022/07/03 13:05:55;;;;;;;0.00;0.00;;;31.60;40.30;;;;;;4976009;28;20027;-74
2022/07/03 13:08:20;;;;;;;0.10;0.10;;;31.70;40.30;;;;;;4975850;28;20382;-74
2022/07/03 13:10:55;;;;;;;0.00;0.00;;;31.80;39.70;;;;;;4958252;28;20027;-73
2022/07/03 13:13:21;;;;;;;0.00;0.00;;;31.90;40.40;;;;;;4975935;28;20054;-74